Flight Track Log - Related Links

Times and Time Zones

All times are in EDT time to prevent confusion due to time zone crossing. See the THA129 flight status page for this flight to view local times or setup timezone preferences in your user account.

Time Position Orientation Groundspeed Altitude Reporting Facility
EDT Latitude Longitude Course Direction KTS MPH feet Rate Location/Type
Sun 02:09:15 AM 18.7373 98.9608 183° South  Level Estimated
Sun 02:10:15 AM 18.6189 98.9532 183° South  Level Estimated
Sun 02:11:15 AM 18.5006 98.9457 183° South  Level Estimated
Sun 02:12:15 AM 18.3822 98.9382 183° South  Level Estimated
Sun 02:13:15 AM 18.2639 98.9307 183° South  Level Estimated
Sun 02:14:15 AM 18.1456 98.9232 183° South  Level Estimated
Sun 02:15:15 AM 18.0272 98.9157 183° South  Level Estimated
Sun 02:16:15 AM 17.9089 98.9082 183° South  Level Estimated
Sun 02:17:15 AM 17.7905 98.9008 183° South  Level Estimated
Sun 02:18:15 AM 17.6722 98.8933 183° South  Level Estimated
Sun 02:19:15 AM 17.5539 98.8859 183° South  Level Estimated
Sun 02:20:15 AM 17.4355 98.8784 183° South  Level Estimated
Sun 02:21:15 AM 17.3172 98.8710 183° South  Level Estimated
Sun 02:22:15 AM 17.1988 98.8636 183° South  Level Estimated
Sun 02:23:15 AM 17.0805 98.8562 183° South  Level Estimated
Sun 02:24:15 AM 16.9622 98.8488 183° South  Level Estimated
Sun 02:25:15 AM 16.8438 98.8414 183° South  Level Estimated
Sun 02:26:15 AM 16.7255 98.8340 183° South  Level Estimated
Sun 02:27:15 AM 16.6071 98.8267 183° South  Level Estimated
Sun 02:28:15 AM 16.4888 98.8193 183° South  Level Estimated
Sun 02:29:15 AM 16.3705 98.8120 183° South  Level Estimated
Sun 02:30:15 AM 16.2521 98.8046 183° South  Level Estimated
Sun 02:31:15 AM 16.1338 98.7973 183° South  Level Estimated
Sun 02:32:15 AM 16.0154 98.7899 183° South  Level Estimated
Sun 02:33:15 AM 15.8971 98.7826 183° South  Level Estimated
Sun 02:34:15 AM 15.7788 98.7753 183° South  Level Estimated
Sun 02:35:15 AM 15.6604 98.7680 183° South  Level Estimated
Sun 02:36:15 AM 15.5421 98.7607 183° South  Level Estimated
Sun 02:37:15 AM 15.4237 98.7534 183° South  Level Estimated
Sun 02:38:15 AM 15.3054 98.7462 183° South  Level Estimated
Sun 02:39:15 AM 15.1870 98.7389 183° South  Level Estimated
Sun 02:40:15 AM 15.0687 98.7316 183° South  Level Estimated
Sun 02:41:15 AM 14.9503 98.7244 183° South  Level Estimated
Sun 02:42:15 AM 14.8320 98.7171 183° South  Level Estimated
Sun 02:43:15 AM 14.7136 98.7099 183° South  Level Estimated
Sun 02:44:15 AM 14.5953 98.7027 183° South  Level Estimated
Sun 02:45:15 AM 14.4769 98.6955 183° South  Level Estimated
Sun 02:46:15 AM 14.3586 98.6882 183° South  Level Estimated
Sun 02:47:15 AM 14.2402 98.6811 183° South  Level Estimated
Sun 02:48:15 AM 14.1219 98.6739 183° South  Level Estimated
Sun 02:49:15 AM 14.0035 98.6667 183° South  Level Estimated
Sun 02:50:15 AM 13.8852 98.6595 183° South  Level Estimated
Sun 02:51:15 AM 13.7668 98.6523 183° South  Level Estimated
Sun 02:52:15 AM 13.6485 98.6452 183° South  Level Estimated
Sun 02:53:15 AM 13.5301 98.6380 183° South  Level Estimated
Sun 02:54:15 AM 13.4118 98.6309 183° South  Level Estimated
Sun 02:55:15 AM 13.2934 98.6237 183° South  Level Estimated
Sun 02:56:15 AM 13.1751 98.6166 183° South  Level Estimated
Sun 02:57:15 AM 13.0567 98.6094 183° South  Level Estimated
Sun 02:58:15 AM 12.9384 98.6023 183° South  Level Estimated
Sun 02:59:15 AM 12.8200 98.5952 183° South  Level Estimated
Sun 03:00:15 AM 12.7017 98.5881 183° South  Level Estimated
Sun 03:01:15 AM 12.5833 98.5810 183° South  Level Estimated
Sun 03:02:15 AM 12.4650 98.5739 183° South  Level Estimated
Sun 03:03:15 AM 12.3466 98.5668 183° South  Level Estimated
Sun 03:04:15 AM 12.2283 98.5597 183° South  Level Estimated
Sun 03:05:15 AM 12.1099 98.5527 183° South  Level Estimated
Sun 03:06:15 AM 11.9916 98.5456 183° South  Level Estimated
Sun 03:07:15 AM 11.8732 98.5385 183° South  Level Estimated
Sun 03:08:15 AM 11.7549 98.5314 183° South  Level Estimated
Sun 03:09:15 AM 11.6365 98.5244 183° South  Level Estimated
Sun 03:10:15 AM 11.5182 98.5173 183° South  Level Estimated
Sun 03:11:15 AM 11.3998 98.5103 183° South  Level Estimated
Sun 03:12:15 AM 11.2815 98.5033 183° South  Level Estimated
Sun 03:13:15 AM 11.1631 98.4962 183° South  Level Estimated
Sun 03:14:15 AM 11.0448 98.4892 183° South  Level Estimated
Sun 03:15:15 AM 10.9264 98.4822 183° South  Level Estimated
Sun 03:16:15 AM 10.8081 98.4752 183° South  Level Estimated
Sun 03:17:15 AM 10.6897 98.4682 183° South  Level Estimated
Sun 03:18:15 AM 10.5714 98.4612 183° South  Level Estimated
Sun 03:19:15 AM 10.4530 98.4542 183° South  Level Estimated
Sun 03:20:15 AM 10.3347 98.4472 183° South  Level Estimated
Sun 03:21:15 AM 10.2163 98.4402 183° South  Level Estimated
Sun 03:22:15 AM 10.0980 98.4332 183° South  Level Estimated
Sun 03:23:15 AM 9.9796 98.4262 183° South  Level Estimated
Sun 03:24:15 AM 9.8613 98.4193 183° South  Level Estimated
Sun 03:25:15 AM 9.7429 98.4123 183° South  Level Estimated
Sun 03:26:15 AM 9.6246 98.4053 183° South  Level Estimated
Sun 03:27:15 AM 9.5062 98.3984 183° South  Level Estimated
Sun 03:28:15 AM 9.3879 98.3914 183° South  Level Estimated
Sun 03:29:15 AM 9.2695 98.3845 183° South  Level Estimated
Sun 03:30:15 AM 9.1512 98.3776 183° South  Level Estimated
Sun 03:31:15 AM 9.0328 98.3706 183° South  Level Estimated
Sun 03:32:15 AM 8.9145 98.3637 183° South  Level Estimated
Sun 03:33:15 AM 8.7961 98.3568 183° South  Level Estimated
Sun 03:34:15 AM 8.6778 98.3499 183° South  Level Estimated
Sun 03:35:15 AM 8.5594 98.3429 183° South  Level Estimated
Sun 03:36:15 AM 8.4410 98.3360 183° South  Level Estimated
Sun 03:37:15 AM 8.3227 98.3291 183° South  Level Estimated
Sun 03:38:15 AM 8.2043 98.3222 183° South  Level Estimated
Sun 03:39:15 AM 8.0860 98.3153 North  Level Estimated
Sun 03:40:15 AM 8.2043 98.3222 183° South  Level Estimated
Sun 03:41:15 AM 8.0860 98.3153 North  Level Estimated
Sun 03:42:15 AM 8.2043 98.3222 183° South  Level Estimated
Sun 03:43:15 AM 8.0860 98.3153 North  Level Estimated
Sun 03:44:15 AM 8.2043 98.3222 183° South  Level Estimated
Sun 03:45:15 AM 8.0860 98.3153 North  Level Estimated
Sun 03:46:15 AM 8.2043 98.3222 183° South  Level Estimated
Sun 03:47:15 AM 8.0860 98.3153 North  Level Estimated
Sun 03:48:15 AM 8.2043 98.3222 183° South  Level Estimated
Sun 03:49:15 AM 8.0860 98.3153 North  Level Estimated
Sun 03:50:15 AM 8.2043 98.3222 183° South  Level Estimated
Sun 03:51:15 AM 8.0860 98.3153 North  Level Estimated
Sun 03:52:15 AM 8.2043 98.3222 183° South  Level Estimated
Sun 03:53:15 AM 8.0860 98.3153 North  Level Estimated
Sun 03:54:15 AM 8.2043 98.3222 North  Level Estimated

Login

Don't have an account? Register now (free) for customized features, flight alerts, and more!